Time;durP1;ratioP1;P1;durP2;ratioP2;P2;SDS_P1;SDS_P2;PMS_P1;PMS_P2;Temp;Humidity;BMP_temperature;BMP_pressure;BME280_temperature;BME280_humidity;BME280_pressure;Samples;Min_cycle;Max_cycle;Signal;HPM_P1;HPM_P2
2023/12/14 00:00:45;;;;;;;10.43;8.73;;;5.20;99.90;;;;;;5025675;28;20054;-88
2023/12/14 00:03:11;;;;;;;11.87;9.43;;;5.20;99.90;;;;;;5010057;28;20046;-88
2023/12/14 00:05:37;;;;;;;10.53;8.73;;;5.10;99.90;;;;;;5004841;28;20638;-87
2023/12/14 00:08:03;;;;;;;11.60;9.30;;;5.20;99.90;;;;;;5027816;28;20049;-88
2023/12/14 00:10:28;;;;;;;12.10;9.70;;;5.20;99.90;;;;;;5023386;28;20046;-88
2023/12/14 00:12:55;;;;;;;11.13;9.17;;;5.20;99.90;;;;;;5020747;28;20113;-89
2023/12/14 00:15:21;;;;;;;11.90;8.87;;;5.10;99.90;;;;;;5018552;28;20050;-88
2023/12/14 00:17:46;;;;;;;11.60;8.50;;;5.10;99.90;;;;;;5022284;28;20065;-87
2023/12/14 00:20:12;;;;;;;11.03;9.10;;;5.10;99.90;;;;;;5020218;28;20459;-87
2023/12/14 00:22:39;;;;;;;12.17;9.10;;;5.20;99.90;;;;;;5007796;28;20072;-87
2023/12/14 00:25:05;;;;;;;13.77;8.93;;;5.10;99.90;;;;;;5026003;28;20053;-86
2023/12/14 00:27:31;;;;;;;11.07;8.37;;;5.10;99.90;;;;;;5025033;28;20655;-89
2023/12/14 00:29:57;;;;;;;11.77;9.23;;;5.10;99.90;;;;;;5027237;28;20797;-89
2023/12/14 00:32:22;;;;;;;14.50;8.87;;;5.10;99.90;;;;;;5023520;28;20156;-88
2023/12/14 00:34:48;;;;;;;13.53;8.93;;;5.20;99.90;;;;;;5033265;28;20037;-87
2023/12/14 00:37:14;;;;;;;10.53;8.33;;;5.10;99.90;;;;;;5021094;28;20056;-87
2023/12/14 00:39:40;;;;;;;12.10;9.23;;;5.10;99.90;;;;;;5034136;28;20037;-88
2023/12/14 00:42:06;;;;;;;11.87;8.80;;;5.10;99.90;;;;;;5017016;28;20034;-86
2023/12/14 00:44:31;;;;;;;11.07;8.73;;;5.10;99.90;;;;;;5040923;28;20045;-87
2023/12/14 00:46:58;;;;;;;12.20;8.90;;;5.10;99.90;;;;;;5043106;28;20140;-88
2023/12/14 00:49:24;;;;;;;11.27;8.97;;;5.00;99.90;;;;;;5042598;28;20073;-88
2023/12/14 00:51:50;;;;;;;10.80;8.23;;;5.00;99.90;;;;;;5028512;28;20048;-87
2023/12/14 00:54:15;;;;;;;11.17;8.80;;;5.10;99.90;;;;;;5038201;28;20034;-87
2023/12/14 00:56:41;;;;;;;11.93;8.50;;;5.00;99.90;;;;;;5006969;28;20026;-87
2023/12/14 00:59:07;;;;;;;13.07;8.93;;;5.00;99.90;;;;;;5038453;28;20053;-84
2023/12/14 01:01:33;;;;;;;14.27;9.10;;;5.00;99.90;;;;;;5038720;28;20146;-87
2023/12/14 01:03:59;;;;;;;10.53;8.13;;;5.00;99.90;;;;;;5044227;28;20037;-87
2023/12/14 01:06:25;;;;;;;13.40;9.37;;;5.00;99.90;;;;;;5040052;28;20029;-87
2023/12/14 01:08:51;;;;;;;13.00;8.60;;;5.00;99.90;;;;;;5035677;28;20443;-87
2023/12/14 01:11:16;;;;;;;12.43;8.80;;;5.00;99.90;;;;;;5025200;28;20045;-87
2023/12/14 01:13:42;;;;;;;12.47;8.30;;;4.90;99.90;;;;;;5037293;28;20050;-87
2023/12/14 01:16:08;;;;;;;10.73;8.30;;;4.90;99.90;;;;;;5040889;28;20092;-88
2023/12/14 01:18:34;;;;;;;11.80;8.50;;;4.90;99.90;;;;;;5035880;28;20082;-87
2023/12/14 01:20:59;;;;;;;12.93;8.60;;;4.90;99.90;;;;;;5033867;28;20048;-84
2023/12/14 01:23:25;;;;;;;11.50;8.30;;;4.90;99.90;;;;;;5017121;28;20097;-87
2023/12/14 01:25:51;;;;;;;11.60;7.90;;;4.90;99.90;;;;;;5016297;28;20057;-87
2023/12/14 01:28:16;;;;;;;11.27;8.17;;;4.90;99.90;;;;;;4988595;28;20113;-89
2023/12/14 01:30:42;;;;;;;12.33;7.73;;;4.90;99.90;;;;;;4977149;28;20130;-88
2023/12/14 01:33:08;;;;;;;11.10;7.77;;;4.90;99.90;;;;;;5020812;28;20683;-87
2023/12/14 01:35:33;;;;;;;12.47;7.80;;;4.90;99.90;;;;;;5028682;28;20026;-89
2023/12/14 01:37:59;;;;;;;12.77;7.73;;;4.90;99.90;;;;;;5018513;28;20037;-87
2023/12/14 01:40:25;;;;;;;10.43;7.47;;;4.80;99.90;;;;;;5036117;28;20065;-87
2023/12/14 01:42:50;;;;;;;10.40;7.53;;;4.80;99.90;;;;;;5021433;28;20033;-87
2023/12/14 01:45:16;;;;;;;12.57;8.17;;;4.80;99.90;;;;;;5035232;28;20466;-87
2023/12/14 01:47:43;;;;;;;14.73;7.93;;;4.80;99.90;;;;;;5029680;28;20033;-87
2023/12/14 01:50:09;;;;;;;14.30;8.20;;;4.80;99.90;;;;;;5035464;28;20660;-85
2023/12/14 01:52:35;;;;;;;11.43;7.87;;;4.80;99.90;;;;;;5016378;28;20106;-86
2023/12/14 01:55:02;;;;;;;11.87;7.70;;;4.80;99.90;;;;;;5016627;28;20053;-87
2023/12/14 01:57:28;;;;;;;13.80;8.23;;;4.70;99.90;;;;;;5041866;28;20033;-89
2023/12/14 01:59:54;;;;;;;12.00;7.90;;;4.70;99.90;;;;;;5033010;28;20050;-87
2023/12/14 02:02:20;;;;;;;13.13;8.20;;;4.80;99.90;;;;;;5009446;28;20106;-88
2023/12/14 02:04:45;;;;;;;10.77;7.50;;;4.80;99.90;;;;;;5028678;28;20038;-88
2023/12/14 02:07:11;;;;;;;12.33;8.27;;;4.80;99.90;;;;;;5016004;28;21176;-86
2023/12/14 02:09:37;;;;;;;11.83;8.30;;;4.80;99.90;;;;;;5013559;28;20069;-88
2023/12/14 02:12:03;;;;;;;11.73;8.17;;;4.80;99.90;;;;;;5011994;28;20111;-87
2023/12/14 02:14:28;;;;;;;13.80;7.53;;;4.80;99.90;;;;;;5032662;28;20044;-83
2023/12/14 02:16:54;;;;;;;11.73;8.70;;;4.80;99.90;;;;;;5015671;28;20120;-89
2023/12/14 02:19:20;;;;;;;11.70;7.63;;;4.80;99.90;;;;;;5016760;28;20156;-88
2023/12/14 02:21:45;;;;;;;11.53;8.17;;;4.80;99.90;;;;;;5010308;28;20046;-89
2023/12/14 02:24:11;;;;;;;11.40;8.37;;;4.70;99.90;;;;;;5013708;28;20060;-87
2023/12/14 02:26:37;;;;;;;11.93;7.70;;;4.70;99.90;;;;;;5033260;28;20041;-88
2023/12/14 02:29:02;;;;;;;13.63;8.00;;;4.70;99.90;;;;;;5008566;28;20045;-87
2023/12/14 02:31:28;;;;;;;13.10;8.17;;;4.70;99.90;;;;;;5005911;28;20409;-89
2023/12/14 02:33:54;;;;;;;11.63;7.33;;;4.70;99.90;;;;;;5020813;28;20100;-88
2023/12/14 02:36:19;;;;;;;12.57;7.50;;;4.80;99.90;;;;;;5022430;28;20033;-87
2023/12/14 02:38:45;;;;;;;11.27;7.33;;;4.80;99.90;;;;;;5005057;28;20034;-87
2023/12/14 02:41:11;;;;;;;10.73;7.40;;;4.70;99.90;;;;;;5024420;28;20049;-88
2023/12/14 02:43:37;;;;;;;12.20;7.90;;;4.70;99.90;;;;;;4992443;28;20119;-87
2023/12/14 02:46:04;;;;;;;11.87;7.13;;;4.70;99.90;;;;;;4988565;28;20067;-86
2023/12/14 02:48:29;;;;;;;12.23;7.57;;;4.70;99.90;;;;;;4996696;28;20049;-83
2023/12/14 02:50:55;;;;;;;14.53;8.10;;;4.70;99.90;;;;;;5026013;28;20050;-87
2023/12/14 02:53:21;;;;;;;9.80;7.20;;;4.80;99.90;;;;;;5031257;28;20041;-86
2023/12/14 02:55:47;;;;;;;14.10;7.90;;;4.80;99.90;;;;;;5013260;28;20050;-86
2023/12/14 02:58:12;;;;;;;12.83;7.63;;;4.70;99.90;;;;;;5028076;28;20522;-86
2023/12/14 03:00:38;;;;;;;11.90;7.33;;;4.70;99.90;;;;;;5021836;28;20104;-86
2023/12/14 03:03:04;;;;;;;11.57;7.60;;;4.70;99.90;;;;;;5025078;28;20542;-87
2023/12/14 03:05:29;;;;;;;10.03;7.10;;;4.70;99.90;;;;;;5023188;28;20052;-87
2023/12/14 03:07:55;;;;;;;13.77;8.13;;;4.80;99.90;;;;;;5005823;28;20045;-87
2023/12/14 03:10:21;;;;;;;14.43;8.77;;;4.70;99.90;;;;;;5017618;28;20065;-87
2023/12/14 03:12:46;;;;;;;15.37;9.23;;;4.70;99.90;;;;;;5024339;28;20045;-87
2023/12/14 03:15:12;;;;;;;17.40;9.80;;;4.70;99.90;;;;;;5028102;28;20042;-88
2023/12/14 03:17:38;;;;;;;13.10;9.37;;;4.70;99.90;;;;;;5009253;28;20116;-87
2023/12/14 03:20:06;;;;;;;17.50;9.80;;;4.70;99.90;;;;;;5026011;28;20068;-87
2023/12/14 03:22:32;;;;;;;17.63;10.33;;;4.70;99.90;;;;;;5022762;28;20065;-87
2023/12/14 03:24:58;;;;;;;15.50;9.53;;;4.70;99.90;;;;;;5019585;28;20049;-87
2023/12/14 03:27:24;;;;;;;14.17;9.70;;;4.70;99.90;;;;;;5007461;28;20114;-87
2023/12/14 03:29:50;;;;;;;16.90;11.17;;;4.80;99.90;;;;;;5020093;28;20065;-86
2023/12/14 03:32:16;;;;;;;19.43;11.20;;;4.70;99.90;;;;;;5006217;28;20052;-87
2023/12/14 03:34:41;;;;;;;17.70;10.20;;;4.80;99.90;;;;;;5018430;28;20494;-87
2023/12/14 03:37:07;;;;;;;19.63;10.83;;;4.70;99.90;;;;;;5026176;28;20049;-86
2023/12/14 03:39:33;;;;;;;18.27;10.97;;;4.70;99.90;;;;;;5004960;28;20052;-85
2023/12/14 03:41:58;;;;;;;19.73;11.10;;;4.70;99.90;;;;;;5002085;28;20037;-86
2023/12/14 03:44:24;;;;;;;17.77;10.37;;;4.70;99.90;;;;;;5020066;28;20042;-87
2023/12/14 03:46:50;;;;;;;20.63;11.17;;;4.60;99.90;;;;;;5002785;28;20041;-87
2023/12/14 03:49:16;;;;;;;18.30;10.73;;;4.70;99.90;;;;;;5027850;28;20052;-86
2023/12/14 03:51:41;;;;;;;17.17;10.50;;;4.70;99.90;;;;;;5027449;28;20080;-86
2023/12/14 03:54:07;;;;;;;17.83;11.10;;;4.70;99.90;;;;;;5020820;28;20069;-87
2023/12/14 03:56:33;;;;;;;17.10;11.03;;;4.70;99.90;;;;;;5018675;28;20042;-87
2023/12/14 03:58:59;;;;;;;19.23;10.97;;;4.70;99.90;;;;;;5025857;28;20132;-86
2023/12/14 04:01:24;;;;;;;18.70;11.27;;;4.70;99.90;;;;;;5000914;28;20049;-88
2023/12/14 04:03:50;;;;;;;17.90;10.47;;;4.70;99.90;;;;;;5005539;28;20038;-87
2023/12/14 04:06:15;;;;;;;18.03;11.23;;;4.80;99.90;;;;;;5002486;28;20037;-86
2023/12/14 04:08:42;;;;;;;19.97;11.93;;;4.70;99.90;;;;;;5017387;28;20046;-85
2023/12/14 04:11:08;;;;;;;15.10;9.67;;;4.70;99.90;;;;;;5029351;28;20053;-87
2023/12/14 04:13:34;;;;;;;14.77;9.60;;;4.70;99.90;;;;;;5018313;28;20561;-86
2023/12/14 04:16:00;;;;;;;17.23;9.87;;;4.70;99.90;;;;;;5028986;28;20076;-86
2023/12/14 04:18:26;;;;;;;19.97;10.63;;;4.70;99.90;;;;;;5024679;28;20152;-88
2023/12/14 04:20:51;;;;;;;20.00;11.03;;;4.70;99.90;;;;;;5023170;28;20537;-87
2023/12/14 04:23:18;;;;;;;19.03;10.70;;;4.70;99.90;;;;;;5039492;28;20077;-87
2023/12/14 04:25:44;;;;;;;17.67;10.20;;;4.70;99.90;;;;;;5045011;28;20053;-86
2023/12/14 04:28:09;;;;;;;15.17;9.30;;;4.70;99.90;;;;;;5044616;28;20476;-90
2023/12/14 04:30:35;;;;;;;18.10;10.33;;;4.80;99.90;;;;;;5039033;28;20065;-86
2023/12/14 04:33:01;;;;;;;16.20;9.93;;;4.80;99.90;;;;;;5025140;28;20050;-87
2023/12/14 04:35:26;;;;;;;15.40;10.07;;;4.80;99.90;;;;;;5037439;28;20049;-87
2023/12/14 04:37:52;;;;;;;14.97;9.77;;;4.70;99.90;;;;;;5007403;28;20046;-87
2023/12/14 04:40:18;;;;;;;19.17;10.97;;;4.70;99.90;;;;;;5016000;28;20088;-87
2023/12/14 04:42:44;;;;;;;17.50;10.20;;;4.70;99.90;;;;;;5023878;28;20042;-89
2023/12/14 04:45:10;;;;;;;16.87;10.07;;;4.70;99.90;;;;;;5040943;28;20099;-86
2023/12/14 04:47:36;;;;;;;15.77;9.83;;;4.70;99.90;;;;;;5038297;28;20045;-89
2023/12/14 04:50:03;;;;;;;16.67;9.60;;;4.70;99.90;;;;;;5041131;28;20053;-88
2023/12/14 04:52:28;;;;;;;14.53;9.87;;;4.70;99.90;;;;;;5028644;28;20134;-88
2023/12/14 04:54:54;;;;;;;16.03;9.70;;;4.80;99.90;;;;;;5045348;28;20049;-89
2023/12/14 04:57:20;;;;;;;15.40;9.13;;;4.80;99.90;;;;;;5045049;28;20087;-88
2023/12/14 04:59:45;;;;;;;16.07;9.40;;;4.80;99.90;;;;;;5037340;28;20045;-88
2023/12/14 05:02:11;;;;;;;16.60;9.87;;;4.80;99.90;;;;;;4997501;28;20069;-89
2023/12/14 05:04:37;;;;;;;16.37;10.33;;;4.80;99.90;;;;;;5021152;28;20048;-88
2023/12/14 05:07:02;;;;;;;13.47;9.10;;;4.70;99.90;;;;;;5022891;28;20526;-88
2023/12/14 05:09:28;;;;;;;16.90;9.17;;;4.70;99.90;;;;;;5045365;28;20501;-89
2023/12/14 05:11:54;;;;;;;15.27;9.60;;;4.70;99.90;;;;;;5050416;28;20163;-89
2023/12/14 05:14:20;;;;;;;14.57;9.03;;;4.70;99.90;;;;;;5014421;28;20054;-87
2023/12/14 05:16:45;;;;;;;14.63;9.47;;;4.70;99.90;;;;;;5041662;28;20063;-86
2023/12/14 05:19:12;;;;;;;14.30;9.40;;;4.70;99.90;;;;;;5023072;28;20890;-87
2023/12/14 05:21:38;;;;;;;15.33;10.10;;;4.70;99.90;;;;;;5027741;28;20160;-86
2023/12/14 05:24:04;;;;;;;14.53;9.43;;;4.70;99.90;;;;;;5028573;28;20089;-89
2023/12/14 05:26:30;;;;;;;16.37;10.03;;;4.70;99.90;;;;;;5010589;28;20477;-87
2023/12/14 05:28:56;;;;;;;16.63;9.97;;;4.70;99.90;;;;;;5028170;28;20109;-87
2023/12/14 05:31:21;;;;;;;17.60;10.43;;;4.70;99.90;;;;;;5029215;28;20052;-86
2023/12/14 05:33:47;;;;;;;17.30;10.07;;;4.70;99.90;;;;;;5031403;28;20049;-87
2023/12/14 05:36:13;;;;;;;17.57;10.43;;;4.60;99.90;;;;;;5027141;28;20038;-87
2023/12/14 05:38:39;;;;;;;15.40;10.13;;;4.70;99.90;;;;;;5013684;28;20068;-86
2023/12/14 05:41:05;;;;;;;14.90;9.50;;;4.70;99.90;;;;;;5012184;28;20037;-87
2023/12/14 05:43:31;;;;;;;17.00;10.30;;;4.60;99.90;;;;;;5026220;28;20177;-83
2023/12/14 05:45:57;;;;;;;16.43;9.73;;;4.70;99.90;;;;;;5032038;28;20461;-86
2023/12/14 05:48:23;;;;;;;16.40;9.73;;;4.60;99.90;;;;;;5029828;28;20056;-87
2023/12/14 05:50:49;;;;;;;13.33;9.50;;;4.60;99.90;;;;;;5027186;28;20041;-85
2023/12/14 05:53:14;;;;;;;15.50;10.40;;;4.70;99.90;;;;;;5030933;28;20041;-86
2023/12/14 05:55:42;;;;;;;16.77;10.70;;;4.60;99.90;;;;;;5025776;28;20051;-86
2023/12/14 05:58:07;;;;;;;15.70;10.60;;;4.60;99.90;;;;;;5024661;28;20064;-86
2023/12/14 06:00:35;;;;;;;16.43;9.57;;;4.60;99.90;;;;;;5020782;28;20050;-86
2023/12/14 06:03:01;;;;;;;18.83;11.40;;;4.60;99.90;;;;;;5026597;28;20057;-87
2023/12/14 06:05:27;;;;;;;15.90;10.40;;;4.60;99.90;;;;;;5025099;28;20041;-85
2023/12/14 06:07:52;;;;;;;17.63;10.40;;;4.70;99.90;;;;;;5026072;28;20053;-85
2023/12/14 06:10:18;;;;;;;17.07;10.40;;;4.70;99.90;;;;;;5027340;28;20045;-86
2023/12/14 06:12:44;;;;;;;17.40;11.23;;;4.60;99.90;;;;;;5003796;28;20034;-86
2023/12/14 06:15:10;;;;;;;17.37;11.33;;;4.60;99.90;;;;;;5027026;28;20069;-87
2023/12/14 06:17:39;;;;;;;18.47;10.67;;;4.60;99.90;;;;;;5015607;28;20062;-87
2023/12/14 06:20:08;;;;;;;17.17;10.97;;;4.60;99.90;;;;;;5011417;28;20536;-88
2023/12/14 06:22:35;;;;;;;16.63;11.17;;;4.60;99.90;;;;;;5041895;28;20057;-80
2023/12/14 06:25:03;;;;;;;17.03;10.53;;;4.60;99.90;;;;;;5044367;28;20049;-83
2023/12/14 06:27:28;;;;;;;18.70;11.10;;;4.60;99.90;;;;;;5021769;28;20080;-84
2023/12/14 06:29:54;;;;;;;16.17;10.37;;;4.60;99.90;;;;;;5048272;28;20049;-88
2023/12/14 06:32:20;;;;;;;18.40;11.03;;;4.60;99.90;;;;;;5002755;28;20060;-87
2023/12/14 06:34:45;;;;;;;17.30;11.03;;;4.60;99.90;;;;;;4996324;28;20125;-88
2023/12/14 06:37:11;;;;;;;14.97;9.73;;;4.60;99.90;;;;;;5024586;28;20417;-87
2023/12/14 06:39:37;;;;;;;15.97;9.87;;;4.60;99.90;;;;;;4997896;28;20105;-88
2023/12/14 06:42:03;;;;;;;20.07;11.13;;;4.60;99.90;;;;;;5000165;28;20045;-88
2023/12/14 06:44:30;;;;;;;15.87;10.50;;;4.60;99.90;;;;;;5008842;28;20041;-82
2023/12/14 06:46:58;;;;;;;16.03;10.70;;;4.70;99.90;;;;;;4985812;28;20087;-87
2023/12/14 06:49:23;;;;;;;16.37;11.00;;;4.70;99.90;;;;;;5018504;28;20128;-90
2023/12/14 06:51:49;;;;;;;18.67;10.63;;;4.60;99.90;;;;;;5028498;28;20052;-87
2023/12/14 06:54:15;;;;;;;18.10;11.70;;;4.60;99.90;;;;;;5018058;28;20052;-87
2023/12/14 06:56:41;;;;;;;16.03;10.30;;;4.60;99.90;;;;;;4999416;28;20103;-89
2023/12/14 06:59:07;;;;;;;19.13;10.63;;;4.50;99.90;;;;;;4981920;28;20034;-86
2023/12/14 07:01:32;;;;;;;17.30;11.07;;;4.50;99.90;;;;;;4976209;28;20045;-87
2023/12/14 07:03:58;;;;;;;15.80;10.43;;;4.60;99.90;;;;;;5012631;28;20047;-88
2023/12/14 07:06:24;;;;;;;16.37;11.10;;;4.60;99.90;;;;;;5029212;28;20469;-87
2023/12/14 07:08:49;;;;;;;18.47;12.40;;;4.60;99.90;;;;;;5017574;28;20045;-89
2023/12/14 07:11:15;;;;;;;16.67;11.87;;;4.60;99.90;;;;;;5012526;28;20111;-83
2023/12/14 07:13:41;;;;;;;18.80;11.10;;;4.60;99.90;;;;;;5042914;28;20053;-82
2023/12/14 07:16:08;;;;;;;17.37;11.47;;;4.60;99.90;;;;;;5017171;28;20046;-83
2023/12/14 07:18:38;;;;;;;18.30;12.00;;;4.60;99.90;;;;;;5031353;28;20049;-83
2023/12/14 07:21:05;;;;;;;16.07;11.00;;;4.60;99.90;;;;;;5030296;28;20045;-83
2023/12/14 07:23:31;;;;;;;20.07;12.17;;;4.60;99.90;;;;;;5042680;28;20064;-83
2023/12/14 07:25:56;;;;;;;16.80;12.00;;;4.60;99.90;;;;;;5025733;28;20045;-83
2023/12/14 07:28:22;;;;;;;19.77;12.33;;;4.60;99.90;;;;;;5011959;28;20080;-83
2023/12/14 07:30:48;;;;;;;18.27;11.53;;;4.60;99.90;;;;;;5023854;28;20049;-83
2023/12/14 07:33:14;;;;;;;17.13;10.63;;;4.60;99.90;;;;;;5030592;28;20140;-83
2023/12/14 07:35:40;;;;;;;18.47;12.33;;;4.60;99.90;;;;;;5020085;28;20046;-83
2023/12/14 07:38:06;;;;;;;20.80;11.30;;;4.60;99.90;;;;;;5008004;28;20413;-83
2023/12/14 07:40:32;;;;;;;19.87;11.80;;;4.60;99.90;;;;;;5006648;28;20058;-85
2023/12/14 07:42:57;;;;;;;20.97;13.00;;;4.60;99.90;;;;;;5011347;28;20486;-84
2023/12/14 07:45:23;;;;;;;20.13;12.23;;;4.60;99.90;;;;;;5023912;28;20056;-84
2023/12/14 07:47:49;;;;;;;18.97;11.70;;;4.60;99.90;;;;;;5028114;28;20034;-84
2023/12/14 07:50:15;;;;;;;19.10;12.00;;;4.60;99.90;;;;;;5030295;28;20064;-83
2023/12/14 07:52:41;;;;;;;17.80;11.90;;;4.60;99.90;;;;;;5032995;28;20081;-83
2023/12/14 07:55:07;;;;;;;18.20;11.37;;;4.60;99.90;;;;;;5035431;28;20059;-83
2023/12/14 07:57:33;;;;;;;19.80;11.57;;;4.60;99.90;;;;;;5044497;28;20140;-82
2023/12/14 07:59:58;;;;;;;20.97;12.20;;;4.60;99.90;;;;;;5029191;28;20072;-83
2023/12/14 08:02:24;;;;;;;19.07;12.10;;;4.60;99.90;;;;;;5031154;28;20113;-82
2023/12/14 08:04:50;;;;;;;18.47;11.47;;;4.60;99.90;;;;;;5040731;28;20615;-82
2023/12/14 08:07:15;;;;;;;17.37;11.27;;;4.60;99.90;;;;;;5026123;28;20052;-83
2023/12/14 08:09:41;;;;;;;17.50;11.63;;;4.70;99.90;;;;;;5030056;28;20041;-83
2023/12/14 08:12:07;;;;;;;23.40;12.70;;;4.60;99.90;;;;;;5050794;28;20383;-83
2023/12/14 08:14:34;;;;;;;20.10;12.00;;;4.70;99.90;;;;;;5039576;28;20407;-83
2023/12/14 08:17:01;;;;;;;18.30;11.13;;;4.70;99.90;;;;;;5039554;28;20054;-82
2023/12/14 08:19:27;;;;;;;20.93;11.80;;;4.70;99.90;;;;;;5030415;28;20574;-83
2023/12/14 08:21:53;;;;;;;22.17;12.77;;;4.70;99.90;;;;;;5027458;28;20037;-83
2023/12/14 08:24:18;;;;;;;23.00;12.43;;;4.70;99.90;;;;;;5031240;28;20046;-83
2023/12/14 08:26:44;;;;;;;18.77;11.53;;;4.70;99.90;;;;;;5046943;28;20058;-82
2023/12/14 08:29:10;;;;;;;17.97;10.87;;;4.70;99.90;;;;;;5050595;28;20033;-83
2023/12/14 08:31:35;;;;;;;21.13;12.37;;;4.70;99.90;;;;;;5023438;28;20050;-86
2023/12/14 08:34:01;;;;;;;21.77;12.33;;;4.70;99.90;;;;;;5041486;28;20046;-85
2023/12/14 08:36:27;;;;;;;21.50;11.80;;;4.80;99.90;;;;;;5004555;28;20057;-85
2023/12/14 08:38:53;;;;;;;19.03;11.73;;;4.70;99.90;;;;;;5024087;28;20105;-85
2023/12/14 08:41:18;;;;;;;19.70;11.80;;;4.80;99.90;;;;;;5009203;28;20374;-85
2023/12/14 08:43:44;;;;;;;23.37;12.67;;;4.80;99.90;;;;;;5019270;28;20050;-86
2023/12/14 08:46:10;;;;;;;21.30;11.23;;;4.80;99.90;;;;;;5010137;28;20068;-86
2023/12/14 08:48:36;;;;;;;23.83;12.73;;;4.80;99.90;;;;;;5015752;28;20077;-86
2023/12/14 08:51:01;;;;;;;20.67;11.33;;;4.80;99.90;;;;;;5011871;28;20084;-86
2023/12/14 08:53:28;;;;;;;22.07;12.07;;;4.80;99.90;;;;;;5013130;28;21897;-90
2023/12/14 08:55:54;;;;;;;22.67;11.67;;;4.80;99.90;;;;;;5011348;28;20085;-87
2023/12/14 08:58:20;;;;;;;23.43;12.77;;;4.90;99.90;;;;;;4994266;28;20056;-87
2023/12/14 09:00:46;;;;;;;23.97;13.23;;;4.80;99.90;;;;;;5026967;28;20049;-85
2023/12/14 09:03:12;;;;;;;22.70;14.00;;;4.90;99.90;;;;;;5042175;28;20049;-85
2023/12/14 09:05:41;;;;;;;22.30;13.07;;;4.90;99.90;;;;;;5022153;28;20432;-85
2023/12/14 09:08:07;;;;;;;23.63;12.90;;;4.90;99.90;;;;;;4981152;28;20112;-84
2023/12/14 09:10:33;;;;;;;24.50;13.23;;;4.90;99.90;;;;;;5050274;28;20049;-84
2023/12/14 09:13:00;;;;;;;21.40;13.03;;;4.90;99.90;;;;;;5046821;28;20062;-78
2023/12/14 09:15:26;;;;;;;20.67;12.77;;;4.90;99.90;;;;;;5041777;28;20075;-83
2023/12/14 09:17:51;;;;;;;26.03;13.63;;;4.90;99.90;;;;;;5010056;28;20133;-86
2023/12/14 09:20:17;;;;;;;24.50;12.90;;;5.00;99.90;;;;;;5041599;28;20223;-87
2023/12/14 09:22:43;;;;;;;20.93;12.80;;;5.00;99.90;;;;;;5021978;28;20073;-85
2023/12/14 09:25:09;;;;;;;26.20;13.50;;;5.00;99.90;;;;;;5037718;28;20463;-86
2023/12/14 09:27:35;;;;;;;24.33;14.27;;;5.00;99.90;;;;;;5043118;28;20041;-86
2023/12/14 09:30:01;;;;;;;23.70;13.17;;;5.00;99.90;;;;;;5003455;28;20064;-86
2023/12/14 09:32:26;;;;;;;26.73;13.77;;;5.00;99.90;;;;;;5025863;28;20137;-85
2023/12/14 09:34:56;;;;;;;24.83;13.80;;;5.00;99.90;;;;;;5031549;28;20044;-86
2023/12/14 09:37:22;;;;;;;25.30;13.33;;;5.00;99.90;;;;;;5028507;28;20045;-83
2023/12/14 09:39:47;;;;;;;26.97;14.00;;;5.00;99.90;;;;;;5035917;28;20664;-82
2023/12/14 09:42:18;;;;;;;26.80;14.47;;;5.00;99.90;;;;;;5039122;28;20042;-84
2023/12/14 09:44:44;;;;;;;31.17;14.37;;;5.00;99.90;;;;;;5009025;28;20045;-82
2023/12/14 09:47:09;;;;;;;24.73;14.53;;;5.00;99.90;;;;;;5029424;28;20040;-83
2023/12/14 09:49:37;;;;;;;24.13;14.70;;;5.00;99.90;;;;;;5004624;28;20087;-82
2023/12/14 09:52:03;;;;;;;26.93;14.90;;;5.00;99.90;;;;;;5025100;28;20053;-82
2023/12/14 09:54:28;;;;;;;27.63;14.90;;;5.00;99.90;;;;;;5004900;28;20543;-82
2023/12/14 09:56:55;;;;;;;29.00;15.23;;;5.00;99.90;;;;;;5023642;28;20046;-82
2023/12/14 09:59:22;;;;;;;27.83;14.13;;;5.00;99.90;;;;;;5045493;28;20046;-82
2023/12/14 10:01:47;;;;;;;29.77;14.63;;;5.10;99.90;;;;;;5032111;28;20068;-82
2023/12/14 10:04:15;;;;;;;28.23;15.33;;;5.10;99.90;;;;;;5021725;28;20046;-82
2023/12/14 10:06:43;;;;;;;25.93;14.47;;;5.10;99.90;;;;;;5032431;28;20049;-81
2023/12/14 10:09:09;;;;;;;27.43;14.23;;;5.10;99.90;;;;;;5046166;28;20060;-80
2023/12/14 10:11:36;;;;;;;28.00;14.30;;;5.20;99.90;;;;;;5041797;28;20134;-81
2023/12/14 10:14:04;;;;;;;26.90;14.63;;;5.20;99.90;;;;;;5041482;28;20049;-80
2023/12/14 10:16:33;;;;;;;29.10;13.80;;;5.20;99.90;;;;;;5044160;28;20049;-81
2023/12/14 10:19:00;;;;;;;27.67;15.17;;;5.20;99.90;;;;;;5046195;28;20064;-80
2023/12/14 10:21:29;;;;;;;28.37;15.20;;;5.20;99.90;;;;;;5042820;28;20047;-80
2023/12/14 10:23:58;;;;;;;29.20;15.13;;;5.20;99.90;;;;;;5042331;28;20099;-81
2023/12/14 10:26:25;;;;;;;30.27;15.57;;;5.30;99.90;;;;;;5035363;28;20049;-80
2023/12/14 10:28:52;;;;;;;30.07;15.07;;;5.30;99.90;;;;;;5020548;28;20109;-81
2023/12/14 10:31:19;;;;;;;23.50;14.10;;;5.40;99.90;;;;;;5039202;28;20070;-81
2023/12/14 10:33:46;;;;;;;27.33;14.47;;;5.40;99.90;;;;;;5037617;28;20096;-80
2023/12/14 10:36:14;;;;;;;23.53;13.87;;;5.40;99.90;;;;;;5049806;28;20052;-80
2023/12/14 10:38:42;;;;;;;22.73;13.83;;;5.50;99.90;;;;;;5024762;28;20048;-81
2023/12/14 10:41:10;;;;;;;27.67;14.77;;;5.50;99.90;;;;;;5042766;28;20096;-81
2023/12/14 10:43:36;;;;;;;25.67;14.57;;;5.50;99.90;;;;;;5049502;28;20124;-80
2023/12/14 10:46:07;;;;;;;26.90;14.03;;;5.50;99.90;;;;;;5020918;28;20079;-81
2023/12/14 10:48:36;;;;;;;22.90;13.07;;;5.50;99.90;;;;;;5031282;28;20038;-83
2023/12/14 10:51:02;;;;;;;24.03;14.13;;;5.50;99.90;;;;;;5009527;28;20049;-87
2023/12/14 10:53:29;;;;;;;25.20;12.63;;;5.50;99.90;;;;;;5021072;28;20048;-86
2023/12/14 10:55:58;;;;;;;23.10;13.30;;;5.50;99.90;;;;;;5022782;28;20057;-83
2023/12/14 10:58:24;;;;;;;24.07;13.23;;;5.50;99.90;;;;;;5026648;28;20041;-84
2023/12/14 11:01:02;;;;;;;24.70;13.37;;;5.50;99.90;;;;;;5026649;28;20060;-80
2023/12/14 11:03:34;;;;;;;23.10;12.73;;;5.50;99.90;;;;;;5023244;28;20054;-83
2023/12/14 11:06:00;;;;;;;23.13;13.10;;;5.60;99.90;;;;;;5042413;28;20065;-84
2023/12/14 11:08:26;;;;;;;23.47;12.70;;;5.60;99.90;;;;;;5023890;28;20073;-85
2023/12/14 11:11:10;;;;;;;26.13;13.10;;;5.60;99.90;;;;;;5007078;28;20145;-84
2023/12/14 11:13:38;;;;;;;21.67;12.67;;;5.60;99.90;;;;;;5032251;28;20063;-86
2023/12/14 11:16:04;;;;;;;20.03;12.60;;;5.60;99.90;;;;;;4996888;28;20056;-83
2023/12/14 11:18:30;;;;;;;21.63;12.37;;;5.60;99.90;;;;;;5017185;28;20053;-84
2023/12/14 11:20:59;;;;;;;23.83;12.80;;;5.70;99.90;;;;;;5023629;28;20404;-86
2023/12/14 11:23:24;;;;;;;20.20;12.17;;;5.70;99.90;;;;;;5039900;28;20076;-86
2023/12/14 11:25:59;;;;;;;24.30;12.27;;;5.60;99.90;;;;;;5020239;28;20049;-86
2023/12/14 11:28:26;;;;;;;23.17;12.67;;;5.70;99.90;;;;;;5041434;28;20052;-85
2023/12/14 11:30:52;;;;;;;24.10;13.10;;;5.70;99.90;;;;;;5046416;28;20053;-85
2023/12/14 11:33:18;;;;;;;19.47;12.43;;;5.70;99.90;;;;;;5044063;28;20056;-85
2023/12/14 11:35:43;;;;;;;26.03;12.53;;;5.70;99.90;;;;;;5028774;28;20552;-86
2023/12/14 11:38:15;;;;;;;28.67;13.27;;;5.80;99.90;;;;;;5022265;28;20095;-85
2023/12/14 11:40:41;;;;;;;21.58;12.50;;;5.80;99.90;;;;;;5028530;28;20041;-86
2023/12/14 11:43:08;;;;;;;18.40;11.57;;;5.80;99.90;;;;;;5029080;28;20500;-85
2023/12/14 11:45:43;;;;;;;19.53;12.33;;;5.80;99.90;;;;;;5039559;28;20052;-85
2023/12/14 11:48:13;;;;;;;21.53;12.43;;;5.80;99.90;;;;;;5049553;28;20520;-85
2023/12/14 11:50:42;;;;;;;20.97;12.77;;;5.80;99.90;;;;;;5032118;28;20128;-86
2023/12/14 11:53:09;;;;;;;20.53;12.03;;;5.80;99.90;;;;;;5044255;28;20539;-85
2023/12/14 11:55:36;;;;;;;22.73;12.63;;;5.80;99.90;;;;;;5035016;28;20079;-85
2023/12/14 11:58:03;;;;;;;20.37;12.57;;;5.80;99.90;;;;;;5025137;28;20052;-85
2023/12/14 12:00:30;;;;;;;21.70;12.47;;;5.80;99.90;;;;;;5033264;28;20454;-85
2023/12/14 12:03:19;;;;;;;27.90;13.77;;;5.80;99.90;;;;;;5043785;28;20084;-86
2023/12/14 12:05:50;;;;;;;22.93;12.73;;;5.80;99.90;;;;;;5031551;28;20087;-85
2023/12/14 12:08:20;;;;;;;21.90;12.60;;;5.90;99.90;;;;;;5036240;28;20041;-81
2023/12/14 12:10:46;;;;;;;25.57;13.40;;;5.90;99.90;;;;;;5042365;28;20045;-85
2023/12/14 12:13:18;;;;;;;27.40;14.50;;;5.90;99.90;;;;;;5022908;28;20046;-85
2023/12/14 12:15:45;;;;;;;28.10;14.25;;;5.90;99.90;;;;;;5044376;28;20412;-86
2023/12/14 12:18:16;;;;;;;23.80;14.97;;;5.90;99.90;;;;;;5038743;28;20061;-87
2023/12/14 12:20:42;;;;;;;22.75;13.27;;;6.00;99.90;;;;;;5047980;28;20052;-85
2023/12/14 12:23:08;;;;;;;24.10;12.77;;;6.00;99.90;;;;;;5043954;28;20049;-86
2023/12/14 12:25:35;;;;;;;22.23;13.50;;;6.00;99.90;;;;;;5032367;28;20065;-86
2023/12/14 12:28:02;;;;;;;19.73;12.53;;;6.00;99.90;;;;;;5037604;28;20096;-86
2023/12/14 12:30:28;;;;;;;23.17;12.20;;;6.00;99.90;;;;;;5038710;28;20046;-85
2023/12/14 12:32:55;;;;;;;21.50;12.40;;;6.00;99.90;;;;;;5049247;28;20044;-85
2023/12/14 12:35:22;;;;;;;21.87;12.73;;;6.00;99.90;;;;;;5038634;28;20053;-84